Time;durP1;ratioP1;P1;durP2;ratioP2;P2;SDS_P1;SDS_P2;PMS_P1;PMS_P2;Temp;Humidity;BMP_temperature;BMP_pressure;BME280_temperature;BME280_humidity;BME280_pressure;Samples;Min_cycle;Max_cycle;Signal;HPM_P1;HPM_P2
2023/03/10 00:02:17;;;;;;;8.07;5.68;;;5.50;99.60;;;;;;5083369;28;20138;-70
2023/03/10 00:04:43;;;;;;;6.65;4.22;;;5.50;99.60;;;;;;5091095;28;20784;-71
2023/03/10 00:07:08;;;;;;;5.25;3.08;;;5.50;99.60;;;;;;5073775;28;20024;-72
2023/03/10 00:09:34;;;;;;;6.50;3.92;;;5.50;99.60;;;;;;5070206;28;20559;-71
2023/03/10 00:12:00;;;;;;;6.50;4.75;;;5.50;99.60;;;;;;5077751;28;20028;-71
2023/03/10 00:14:26;;;;;;;7.63;5.25;;;5.40;99.60;;;;;;5089625;28;20119;-71
2023/03/10 00:16:51;;;;;;;7.63;5.43;;;5.40;99.80;;;;;;5077432;28;20070;-71
2023/03/10 00:19:17;;;;;;;7.72;5.50;;;5.50;99.80;;;;;;5088647;28;20019;-71
2023/03/10 00:21:44;;;;;;;8.35;5.55;;;5.50;99.70;;;;;;5082620;28;20024;-71
2023/03/10 00:24:10;;;;;;;7.65;5.40;;;5.50;99.70;;;;;;5085582;28;20027;-72
2023/03/10 00:26:37;;;;;;;6.85;4.47;;;5.60;99.70;;;;;;5084499;28;20375;-71
2023/03/10 00:29:03;;;;;;;8.25;5.40;;;5.60;99.70;;;;;;5083484;28;20078;-70
2023/03/10 00:31:30;;;;;;;8.02;5.75;;;5.70;99.60;;;;;;5086433;28;20448;-71
2023/03/10 00:33:56;;;;;;;8.48;6.00;;;5.70;99.60;;;;;;5080334;28;20039;-71
2023/03/10 00:36:28;;;;;;;8.38;5.68;;;5.70;99.70;;;;;;5088658;28;20107;-71
2023/03/10 00:38:55;;;;;;;7.72;5.45;;;5.70;99.70;;;;;;5078856;28;20020;-71
2023/03/10 00:41:23;;;;;;;9.00;5.82;;;5.70;99.60;;;;;;5087082;28;20410;-71
2023/03/10 00:43:49;;;;;;;8.00;5.50;;;5.80;99.60;;;;;;5080750;28;20017;-71
2023/03/10 00:46:15;;;;;;;7.95;5.60;;;5.90;99.60;;;;;;5070274;28;20411;-72
2023/03/10 00:48:41;;;;;;;8.82;5.97;;;5.90;99.50;;;;;;5077546;28;20020;-71
2023/03/10 00:51:07;;;;;;;9.63;6.63;;;5.90;99.40;;;;;;5070782;28;20770;-71
2023/03/10 00:53:34;;;;;;;7.72;5.70;;;5.90;99.40;;;;;;5081098;28;20085;-71
2023/03/10 00:56:01;;;;;;;9.45;6.45;;;6.00;99.40;;;;;;5069670;28;20033;-70
2023/03/10 00:58:28;;;;;;;9.57;6.88;;;6.00;99.40;;;;;;5074988;28;20082;-71
2023/03/10 01:00:54;;;;;;;8.90;6.30;;;6.10;99.30;;;;;;5087778;28;20028;-70
2023/03/10 01:03:21;;;;;;;8.38;5.15;;;6.10;99.30;;;;;;5084565;28;20027;-70
2023/03/10 01:05:48;;;;;;;8.85;5.65;;;6.10;99.30;;;;;;5073198;28;20043;-70
2023/03/10 01:08:14;;;;;;;7.95;5.43;;;6.10;99.30;;;;;;5075332;28;20052;-71
2023/03/10 01:10:39;;;;;;;7.05;4.93;;;6.10;99.30;;;;;;5083291;28;20020;-70
2023/03/10 01:13:06;;;;;;;8.55;5.95;;;6.10;99.30;;;;;;5072350;28;20025;-70
2023/03/10 01:15:32;;;;;;;8.90;5.53;;;6.00;99.20;;;;;;5084831;28;20024;-71
2023/03/10 01:18:02;;;;;;;4.63;3.17;;;6.00;99.20;;;;;;5085897;28;20101;-71
2023/03/10 01:20:29;;;;;;;7.72;5.97;;;6.00;99.20;;;;;;5078351;28;20020;-70
2023/03/10 01:22:55;;;;;;;7.10;4.85;;;6.00;99.20;;;;;;5070859;28;20013;-71
2023/03/10 01:25:21;;;;;;;7.97;6.28;;;6.00;99.40;;;;;;5080887;28;20035;-71
2023/03/10 01:27:46;;;;;;;8.35;6.07;;;5.90;99.40;;;;;;5070070;28;20024;-71
2023/03/10 01:30:12;;;;;;;8.27;6.00;;;6.00;99.30;;;;;;5080120;28;20039;-70
2023/03/10 01:32:39;;;;;;;8.48;6.05;;;6.00;99.30;;;;;;5068959;28;20477;-71
2023/03/10 01:35:05;;;;;;;8.55;5.55;;;6.10;99.30;;;;;;5081757;28;20387;-70
2023/03/10 01:37:31;;;;;;;8.38;5.90;;;6.10;99.20;;;;;;5087148;28;20036;-70
2023/03/10 01:39:56;;;;;;;9.20;6.78;;;6.20;99.20;;;;;;5083543;28;20068;-70
2023/03/10 01:42:22;;;;;;;9.63;7.03;;;6.20;99.20;;;;;;5068844;28;20082;-70
2023/03/10 01:45:04;;;;;;;9.90;7.22;;;6.20;99.40;;;;;;5078649;28;20035;-71
2023/03/10 01:47:30;;;;;;;9.48;7.05;;;6.20;99.10;;;;;;5068420;28;20398;-70
2023/03/10 01:49:56;;;;;;;8.70;6.65;;;6.30;99.00;;;;;;5079058;28;20020;-71
2023/03/10 01:52:25;;;;;;;9.98;7.43;;;6.30;98.90;;;;;;5071306;28;20020;-70
2023/03/10 01:55:08;;;;;;;9.70;6.88;;;6.30;98.90;;;;;;5076698;28;20032;-70
2023/03/10 01:57:41;;;;;;;9.68;7.00;;;6.30;98.90;;;;;;5070999;28;20035;-71
2023/03/10 02:00:11;;;;;;;9.00;6.40;;;6.40;98.80;;;;;;5077349;28;20020;-70
2023/03/10 02:02:41;;;;;;;11.07;7.47;;;6.30;98.70;;;;;;5081229;28;20379;-70
2023/03/10 02:05:07;;;;;;;;;;;6.30;98.70;;;;;;5071170;28;20025;-71
2023/03/10 02:07:33;;;;;;;9.77;7.03;;;6.40;98.80;;;;;;5088255;28;19935;-70
2023/03/10 02:10:01;;;;;;;10.25;7.07;;;6.40;98.60;;;;;;5084793;28;20364;-70
2023/03/10 02:12:26;;;;;;;10.45;7.07;;;6.30;98.70;;;;;;5075523;28;20028;-70
2023/03/10 02:14:52;;;;;;;9.02;6.35;;;6.30;98.60;;;;;;5071580;28;20044;-71
2023/03/10 02:17:21;;;;;;;9.40;7.20;;;6.30;98.70;;;;;;5087629;28;20102;-71
2023/03/10 02:20:04;;;;;;;10.90;7.50;;;6.20;98.70;;;;;;5084905;28;21353;-71
2023/03/10 02:22:31;;;;;;;10.10;7.20;;;6.20;98.70;;;;;;5086744;28;20028;-69
2023/03/10 02:25:17;;;;;;;9.93;7.07;;;6.30;98.80;;;;;;5079127;28;20048;-71
2023/03/10 02:27:43;;;;;;;11.73;8.02;;;6.30;98.80;;;;;;5079485;28;20035;-72
2023/03/10 02:30:15;;;;;;;10.30;7.80;;;6.30;98.80;;;;;;5087334;28;20020;-70
2023/03/10 02:32:56;;;;;;;11.25;8.10;;;6.30;98.80;;;;;;5075024;28;20523;-70
2023/03/10 02:35:22;;;;;;;10.40;8.05;;;6.30;98.80;;;;;;5069615;28;20407;-71
2023/03/10 02:37:49;;;;;;;11.38;8.20;;;6.40;98.80;;;;;;5080130;28;20024;-71
2023/03/10 02:40:39;;;;;;;11.38;8.23;;;6.40;98.80;;;;;;5069558;28;20121;-70
2023/03/10 02:43:18;;;;;;;10.55;8.20;;;6.40;98.80;;;;;;5077485;28;20027;-68
2023/03/10 02:45:46;;;;;;;13.10;8.87;;;6.30;98.70;;;;;;5086761;28;20020;-69
2023/03/10 02:48:36;;;;;;;11.20;8.23;;;6.30;98.70;;;;;;5068849;28;20769;-70
2023/03/10 02:51:08;;;;;;;12.27;9.07;;;6.30;98.80;;;;;;5062918;28;20250;-72
2023/03/10 02:53:34;;;;;;;11.48;8.70;;;6.30;98.80;;;;;;5077672;28;20581;-70
2023/03/10 02:55:59;;;;;;;11.95;8.70;;;6.30;98.90;;;;;;5070605;28;20067;-70
2023/03/10 02:58:27;;;;;;;12.40;8.65;;;6.40;98.90;;;;;;5080804;28;20111;-70
2023/03/10 03:00:53;;;;;;;11.75;8.05;;;6.40;98.90;;;;;;5091000;28;20061;-70
2023/03/10 03:03:20;;;;;;;12.05;9.05;;;6.40;98.90;;;;;;5073125;28;20020;-71
2023/03/10 03:05:46;;;;;;;11.63;8.75;;;6.40;98.90;;;;;;5090933;28;20020;-70
2023/03/10 03:08:13;;;;;;;13.30;9.00;;;6.40;98.90;;;;;;5078900;28;20044;-70
2023/03/10 03:10:39;;;;;;;11.40;7.95;;;6.50;98.90;;;;;;5091658;28;20027;-70
2023/03/10 03:13:05;;;;;;;10.63;8.23;;;6.50;98.80;;;;;;5076336;28;20032;-70
2023/03/10 03:15:31;;;;;;;12.25;8.73;;;6.40;98.70;;;;;;5089236;28;20028;-70
2023/03/10 03:18:00;;;;;;;12.68;8.93;;;6.40;98.80;;;;;;5086001;28;20438;-70
2023/03/10 03:20:27;;;;;;;14.23;9.20;;;6.40;98.80;;;;;;5072374;28;20025;-70
2023/03/10 03:22:53;;;;;;;11.95;8.88;;;6.40;98.80;;;;;;5080458;28;20486;-71
2023/03/10 03:25:20;;;;;;;11.23;8.18;;;6.40;98.80;;;;;;5075015;28;20050;-70
2023/03/10 03:27:47;;;;;;;12.10;8.52;;;6.40;98.80;;;;;;5077461;28;20042;-71
2023/03/10 03:30:16;;;;;;;11.32;8.00;;;6.30;98.90;;;;;;5077969;28;20032;-70
2023/03/10 03:32:42;;;;;;;12.35;8.70;;;6.30;98.90;;;;;;5073275;28;20055;-72
2023/03/10 03:35:11;;;;;;;11.25;8.43;;;6.30;98.90;;;;;;5084581;28;20063;-70
2023/03/10 03:37:37;;;;;;;11.48;7.55;;;6.30;98.90;;;;;;5089719;28;20027;-69
2023/03/10 03:40:11;;;;;;;11.75;8.43;;;6.30;99.00;;;;;;5080334;28;20024;-70
2023/03/10 03:42:38;;;;;;;11.32;7.60;;;6.30;99.00;;;;;;5089930;28;20023;-71
2023/03/10 03:45:05;;;;;;;12.35;9.07;;;6.30;99.00;;;;;;5078888;28;20115;-70
2023/03/10 03:47:30;;;;;;;12.35;7.90;;;6.30;99.00;;;;;;5089993;28;20028;-70
2023/03/10 03:49:56;;;;;;;12.70;8.52;;;6.30;99.10;;;;;;5088068;28;20020;-71
2023/03/10 03:52:22;;;;;;;11.60;7.88;;;6.30;99.00;;;;;;5090756;28;20152;-70
2023/03/10 03:54:47;;;;;;;12.65;8.32;;;6.30;99.00;;;;;;5083598;28;20032;-71
2023/03/10 03:57:13;;;;;;;11.73;7.80;;;6.30;99.00;;;;;;5071408;28;20096;-71
2023/03/10 03:59:38;;;;;;;10.20;7.25;;;6.30;99.00;;;;;;5075157;28;20111;-71
2023/03/10 04:02:04;;;;;;;12.60;8.52;;;6.20;99.00;;;;;;5083358;28;20025;-70
2023/03/10 04:04:30;;;;;;;10.65;7.28;;;6.20;99.00;;;;;;5081012;28;20032;-71
2023/03/10 04:06:56;;;;;;;11.45;7.75;;;6.20;99.00;;;;;;5072516;28;20514;-70
2023/03/10 04:09:22;;;;;;;10.10;6.18;;;6.20;99.00;;;;;;5078054;28;20588;-70
2023/03/10 04:11:47;;;;;;;11.15;7.50;;;6.30;99.00;;;;;;5075054;28;20017;-71
2023/03/10 04:14:13;;;;;;;7.43;4.90;;;6.20;99.00;;;;;;5076202;28;20028;-70
2023/03/10 04:16:39;;;;;;;9.70;6.43;;;6.20;99.00;;;;;;5075798;28;20033;-70
2023/03/10 04:19:06;;;;;;;11.68;7.85;;;6.20;99.00;;;;;;5075630;28;20069;-70
2023/03/10 04:21:35;;;;;;;11.10;6.97;;;6.20;99.00;;;;;;5089428;28;20031;-71
2023/03/10 04:24:02;;;;;;;9.57;6.00;;;6.10;99.10;;;;;;5088867;28;20036;-70
2023/03/10 04:26:29;;;;;;;10.85;6.93;;;6.10;99.00;;;;;;5079382;28;20828;-71
2023/03/10 04:28:56;;;;;;;10.75;6.60;;;6.10;99.10;;;;;;5088765;28;20097;-70
2023/03/10 04:31:21;;;;;;;9.95;6.50;;;6.10;99.10;;;;;;5083769;28;20036;-69
2023/03/10 04:33:48;;;;;;;8.55;5.20;;;6.20;99.10;;;;;;5069820;28;20028;-70
2023/03/10 04:36:15;;;;;;;11.85;7.15;;;6.20;99.00;;;;;;5077541;28;20024;-70
2023/03/10 04:38:40;;;;;;;12.77;7.05;;;6.20;99.00;;;;;;5089353;28;20020;-71
2023/03/10 04:41:08;;;;;;;11.13;6.90;;;6.10;99.10;;;;;;5082264;28;20069;-70
2023/03/10 04:43:34;;;;;;;12.07;7.30;;;6.10;99.10;;;;;;5069715;28;20501;-69
2023/03/10 04:46:00;;;;;;;12.50;7.03;;;6.10;99.00;;;;;;5082803;28;20445;-70
2023/03/10 04:48:26;;;;;;;10.13;5.70;;;6.10;99.00;;;;;;5070737;28;20103;-71
2023/03/10 04:51:04;;;;;;;8.93;5.25;;;6.00;99.00;;;;;;5079867;28;20020;-70
2023/03/10 04:53:31;;;;;;;8.38;5.28;;;6.00;99.10;;;;;;5077107;28;20119;-70
2023/03/10 04:55:57;;;;;;;11.30;6.20;;;6.00;99.10;;;;;;5077468;28;20107;-69
2023/03/10 04:58:23;;;;;;;9.10;5.60;;;6.00;99.20;;;;;;5072558;28;20765;-71
2023/03/10 05:00:49;;;;;;;11.60;6.60;;;6.00;99.20;;;;;;5070757;28;20044;-70
2023/03/10 05:03:15;;;;;;;9.32;5.60;;;6.00;99.20;;;;;;5083508;28;20093;-70
2023/03/10 05:05:41;;;;;;;11.00;6.35;;;6.00;99.20;;;;;;5085856;28;20016;-70
2023/03/10 05:08:07;;;;;;;8.82;4.88;;;6.00;99.20;;;;;;5080638;28;20040;-71
2023/03/10 05:10:32;;;;;;;6.40;4.10;;;6.00;99.20;;;;;;5088383;28;20047;-70
2023/03/10 05:12:58;;;;;;;8.25;4.80;;;6.00;99.20;;;;;;5078083;28;20061;-70
2023/03/10 05:15:24;;;;;;;7.03;4.13;;;6.00;99.20;;;;;;5088020;28;20043;-70
2023/03/10 05:17:50;;;;;;;7.80;4.25;;;6.00;99.20;;;;;;5078491;28;20020;-71
2023/03/10 05:20:16;;;;;;;8.38;4.00;;;6.00;99.20;;;;;;5085646;28;20038;-72
2023/03/10 05:22:42;;;;;;;7.30;4.40;;;6.00;99.20;;;;;;5072052;28;20020;-71
2023/03/10 05:25:09;;;;;;;7.03;3.80;;;6.00;99.20;;;;;;5090029;28;20028;-71
2023/03/10 05:27:37;;;;;;;6.35;3.83;;;6.00;99.10;;;;;;5076000;28;20025;-71
2023/03/10 05:30:05;;;;;;;6.32;3.63;;;6.00;99.20;;;;;;5087113;28;20060;-71
2023/03/10 05:32:34;;;;;;;6.57;4.00;;;6.00;99.30;;;;;;5084824;28;20057;-71
2023/03/10 05:35:00;;;;;;;6.32;3.53;;;6.00;99.20;;;;;;5070483;28;20048;-71
2023/03/10 05:37:25;;;;;;;5.85;3.30;;;6.00;99.20;;;;;;5079300;28;20787;-71
2023/03/10 05:39:51;;;;;;;5.35;3.13;;;6.00;99.20;;;;;;5090004;28;20031;-71
2023/03/10 05:42:17;;;;;;;7.00;3.72;;;6.00;99.20;;;;;;5082784;28;20032;-71
2023/03/10 05:44:43;;;;;;;6.60;3.75;;;6.00;99.20;;;;;;5084225;28;20020;-71
2023/03/10 05:47:09;;;;;;;5.00;2.60;;;6.00;99.20;;;;;;5085595;28;20025;-72
2023/03/10 05:49:35;;;;;;;7.32;3.20;;;6.00;99.20;;;;;;5069218;28;20540;-71
2023/03/10 05:52:00;;;;;;;7.28;3.53;;;5.90;99.20;;;;;;5081806;28;20078;-72
2023/03/10 05:54:26;;;;;;;4.95;2.92;;;6.00;99.20;;;;;;5080527;28;20040;-71
2023/03/10 05:56:51;;;;;;;3.95;1.83;;;5.90;99.20;;;;;;5071148;28;20778;-71
2023/03/10 05:59:17;;;;;;;3.60;1.80;;;6.00;99.20;;;;;;5084950;28;20085;-70
2023/03/10 06:01:43;;;;;;;5.15;2.72;;;5.90;99.10;;;;;;5085439;28;20475;-71
2023/03/10 06:04:08;;;;;;;3.83;1.98;;;5.90;99.20;;;;;;5081644;28;20111;-71
2023/03/10 06:06:34;;;;;;;4.30;2.25;;;5.90;99.40;;;;;;5073546;28;20608;-70
2023/03/10 06:09:00;;;;;;;5.38;2.95;;;5.90;99.10;;;;;;5077105;28;20040;-70
2023/03/10 06:11:26;;;;;;;4.57;2.38;;;5.90;99.10;;;;;;5080634;28;20500;-70
2023/03/10 06:13:52;;;;;;;5.80;2.85;;;5.90;99.10;;;;;;5073303;28;20032;-69
2023/03/10 06:16:17;;;;;;;5.22;2.55;;;5.90;99.10;;;;;;5072753;28;20483;-70
2023/03/10 06:18:43;;;;;;;6.15;3.50;;;5.80;99.00;;;;;;5077040;28;20024;-70
2023/03/10 06:21:11;;;;;;;5.88;3.30;;;5.90;99.00;;;;;;5081733;28;20028;-70
2023/03/10 06:23:37;;;;;;;5.35;2.97;;;5.80;98.90;;;;;;5077386;28;20529;-71
2023/03/10 06:26:06;;;;;;;7.30;3.95;;;5.90;98.90;;;;;;5078367;28;20058;-70
2023/03/10 06:28:35;;;;;;;7.18;4.07;;;5.80;99.00;;;;;;5076087;28;20036;-70
2023/03/10 06:31:04;;;;;;;8.13;4.03;;;5.80;99.00;;;;;;5081501;28;20483;-69
2023/03/10 06:33:31;;;;;;;7.25;3.20;;;5.80;98.90;;;;;;5083704;28;20115;-70
2023/03/10 06:35:56;;;;;;;6.82;3.35;;;5.80;99.00;;;;;;5079977;28;20058;-68
2023/03/10 06:38:23;;;;;;;7.88;4.00;;;5.70;99.00;;;;;;5081545;28;20443;-70
2023/03/10 06:40:49;;;;;;;6.80;3.90;;;5.70;99.00;;;;;;5074800;28;20483;-71
2023/03/10 06:43:15;;;;;;;6.03;3.42;;;5.70;99.00;;;;;;5075876;28;20475;-70
2023/03/10 06:45:42;;;;;;;6.68;4.00;;;5.70;99.10;;;;;;5081756;28;20069;-70
2023/03/10 06:48:07;;;;;;;7.63;4.50;;;5.60;99.10;;;;;;5076370;28;20482;-71
2023/03/10 06:50:33;;;;;;;6.25;3.72;;;5.60;99.20;;;;;;5077697;28;20056;-71
2023/03/10 06:52:59;;;;;;;7.03;3.40;;;5.60;99.20;;;;;;5073962;28;20100;-70
2023/03/10 06:55:24;;;;;;;6.78;4.13;;;5.70;99.30;;;;;;5083602;28;20071;-71
2023/03/10 06:57:50;;;;;;;7.82;4.70;;;5.70;99.30;;;;;;5073558;28;20056;-70
2023/03/10 07:00:17;;;;;;;6.47;3.40;;;5.70;99.30;;;;;;5081468;28;20032;-70
2023/03/10 07:02:42;;;;;;;8.20;4.07;;;5.70;99.30;;;;;;5078164;28;20603;-71
2023/03/10 07:05:12;;;;;;;7.97;4.80;;;5.70;99.30;;;;;;5085841;28;20162;-70
2023/03/10 07:07:38;;;;;;;5.97;3.67;;;5.70;99.50;;;;;;5076861;28;21283;-70
2023/03/10 07:10:05;;;;;;;6.93;4.07;;;5.70;99.40;;;;;;5083902;28;20028;-70
2023/03/10 07:12:30;;;;;;;5.75;3.25;;;5.70;99.40;;;;;;5084990;28;20024;-70
2023/03/10 07:14:56;;;;;;;7.32;3.78;;;5.70;99.40;;;;;;5073691;28;20025;-70
2023/03/10 07:17:22;;;;;;;6.88;3.63;;;5.70;99.40;;;;;;5085482;28;20086;-70
2023/03/10 07:19:47;;;;;;;4.97;2.60;;;5.70;99.30;;;;;;5073493;28;20116;-69
2023/03/10 07:22:13;;;;;;;6.88;3.65;;;5.70;99.70;;;;;;5079185;28;20078;-71
2023/03/10 07:24:40;;;;;;;7.07;4.25;;;5.70;99.50;;;;;;5081370;28;20040;-70
2023/03/10 07:27:06;;;;;;;6.47;4.00;;;5.60;99.40;;;;;;5075881;28;20082;-70
2023/03/10 07:29:32;;;;;;;7.15;4.22;;;5.60;99.50;;;;;;5084294;28;20024;-71
2023/03/10 07:31:57;;;;;;;8.50;5.18;;;5.60;99.50;;;;;;5078925;28;20387;-70
2023/03/10 07:34:23;;;;;;;7.88;2.83;;;5.70;99.60;;;;;;5081274;28;20136;-72
2023/03/10 07:36:49;;;;;;;8.27;4.00;;;5.70;99.60;;;;;;5079844;28;20027;-70
2023/03/10 07:39:14;;;;;;;7.68;4.70;;;5.70;99.70;;;;;;5082643;28;20027;-70
2023/03/10 07:41:40;;;;;;;8.18;5.00;;;5.80;99.70;;;;;;5079627;28;20536;-71
2023/03/10 07:44:06;;;;;;;7.70;4.13;;;5.80;99.60;;;;;;5080205;28;20033;-71
2023/03/10 07:46:32;;;;;;;6.78;3.88;;;5.80;99.40;;;;;;5076710;28;20024;-71
2023/03/10 07:48:59;;;;;;;7.82;4.47;;;5.80;99.40;;;;;;5078139;28;20070;-71
2023/03/10 07:51:25;;;;;;;6.95;4.10;;;5.90;99.40;;;;;;5076408;28;20051;-70
2023/03/10 07:53:52;;;;;;;7.43;4.75;;;5.90;99.40;;;;;;5083626;28;20042;-71
2023/03/10 07:56:17;;;;;;;7.72;4.72;;;5.90;99.40;;;;;;5073228;28;20017;-71
2023/03/10 07:58:43;;;;;;;6.57;4.00;;;5.90;99.40;;;;;;5082346;28;20076;-71
2023/03/10 08:01:14;;;;;;;7.90;4.10;;;5.90;99.50;;;;;;5073484;28;20024;-71
2023/03/10 08:03:40;;;;;;;8.30;4.90;;;5.90;99.50;;;;;;5087352;28;20028;-69
2023/03/10 08:06:06;;;;;;;7.30;4.57;;;5.90;99.50;;;;;;5081847;28;20027;-72
2023/03/10 08:08:32;;;;;;;7.03;4.13;;;6.00;99.50;;;;;;5084100;28;20050;-71
2023/03/10 08:11:08;;;;;;;7.85;4.47;;;6.00;99.50;;;;;;5072929;28;20033;-72
2023/03/10 08:13:34;;;;;;;7.32;4.80;;;5.90;99.50;;;;;;5082152;28;20039;-71
2023/03/10 08:16:00;;;;;;;8.02;4.88;;;5.90;99.50;;;;;;5077027;28;20024;-72
2023/03/10 08:18:28;;;;;;;6.47;3.92;;;6.00;99.40;;;;;;5081417;28;20103;-72
2023/03/10 08:20:54;;;;;;;6.40;3.47;;;5.90;99.30;;;;;;5079915;28;20020;-72
2023/03/10 08:23:20;;;;;;;7.45;4.32;;;5.80;99.30;;;;;;5077465;28;20085;-72
2023/03/10 08:25:46;;;;;;;8.85;4.80;;;5.80;99.40;;;;;;5070899;28;20486;-72
2023/03/10 08:28:11;;;;;;;8.35;4.85;;;5.80;99.70;;;;;;5081411;28;20032;-72
2023/03/10 08:30:38;;;;;;;7.32;4.38;;;5.80;99.90;;;;;;5075329;28;20032;-73
2023/03/10 08:33:07;;;;;;;8.55;3.85;;;5.90;99.90;;;;;;5079879;28;20050;-72
2023/03/10 08:35:34;;;;;;;8.52;4.32;;;5.90;99.90;;;;;;5087371;28;20223;-71
2023/03/10 08:37:59;;;;;;;7.70;3.72;;;6.00;99.90;;;;;;5083855;28;20098;-71
2023/03/10 08:40:25;;;;;;;6.13;3.45;;;6.10;99.90;;;;;;5081868;28;20478;-71
2023/03/10 08:42:51;;;;;;;6.25;3.60;;;6.10;99.80;;;;;;5071613;28;20069;-72
2023/03/10 08:45:17;;;;;;;9.30;4.57;;;6.00;99.70;;;;;;5085732;28;20077;-71
2023/03/10 08:47:43;;;;;;;7.85;3.60;;;6.00;99.80;;;;;;5084508;28;20023;-72
2023/03/10 08:50:11;;;;;;;6.95;4.30;;;6.00;99.90;;;;;;5091358;28;20024;-72
2023/03/10 08:52:38;;;;;;;5.63;3.15;;;6.10;99.90;;;;;;5082191;28;20032;-72
2023/03/10 08:55:04;;;;;;;6.43;3.40;;;6.10;99.90;;;;;;5079728;28;20032;-72
2023/03/10 08:57:30;;;;;;;6.32;3.70;;;6.10;99.90;;;;;;5078050;28;20797;-73
2023/03/10 08:59:56;;;;;;;6.32;3.72;;;6.20;99.90;;;;;;5075350;28;20037;-72
2023/03/10 09:02:22;;;;;;;8.00;3.90;;;6.20;99.80;;;;;;5073418;28;20476;-72
2023/03/10 09:04:49;;;;;;;7.07;3.67;;;6.20;99.80;;;;;;5082323;28;20024;-72
2023/03/10 09:07:15;;;;;;;7.15;4.47;;;6.20;99.90;;;;;;5080113;28;20050;-72
2023/03/10 09:09:40;;;;;;;7.65;3.90;;;6.30;99.80;;;;;;5070159;28;20048;-72
2023/03/10 09:12:08;;;;;;;6.93;3.30;;;6.30;99.80;;;;;;5078455;28;20024;-71
2023/03/10 09:14:34;;;;;;;8.05;4.07;;;6.30;99.70;;;;;;5085423;28;20059;-72
2023/03/10 09:17:00;;;;;;;6.82;4.20;;;6.30;99.70;;;;;;5080378;28;20105;-72
2023/03/10 09:19:26;;;;;;;6.70;4.18;;;6.30;99.70;;;;;;5076644;28;20083;-73
2023/03/10 09:21:52;;;;;;;10.38;4.95;;;6.30;99.80;;;;;;5077425;28;20024;-71
2023/03/10 09:24:18;;;;;;;7.30;3.70;;;6.30;99.80;;;;;;5080575;28;20024;-72
2023/03/10 09:26:44;;;;;;;9.32;4.13;;;6.40;99.90;;;;;;5075049;28;20405;-71
2023/03/10 09:29:10;;;;;;;7.03;4.15;;;6.40;99.90;;;;;;5085606;28;20020;-72
2023/03/10 09:31:38;;;;;;;6.93;4.10;;;6.40;99.80;;;;;;5089900;28;20338;-73
2023/03/10 09:34:07;;;;;;;6.22;3.65;;;6.50;99.80;;;;;;5086659;28;20498;-72
2023/03/10 09:36:33;;;;;;;6.43;3.47;;;6.50;99.70;;;;;;5079990;28;20023;-73
2023/03/10 09:38:59;;;;;;;9.40;4.07;;;6.60;99.70;;;;;;5080982;28;20028;-72
2023/03/10 09:42:13;;;;;;;7.85;4.15;;;6.60;99.70;;;;;;5082326;28;20023;-72
2023/03/10 09:44:42;;;;;;;8.43;4.00;;;6.60;99.70;;;;;;5070830;28;20048;-73
2023/03/10 09:47:38;;;;;;;7.45;4.13;;;6.70;99.80;;;;;;5080004;28;20024;-71
2023/03/10 09:50:21;;;;;;;6.57;3.40;;;6.70;99.80;;;;;;5078930;28;20111;-72
2023/03/10 09:53:13;;;;;;;5.45;2.72;;;6.70;99.70;;;;;;5082620;28;20052;-70
2023/03/10 09:55:42;;;;;;;4.70;2.33;;;6.70;99.60;;;;;;5034887;28;20048;-70
2023/03/10 09:58:18;;;;;;;6.28;3.50;;;6.80;99.50;;;;;;5083536;28;20035;-71
2023/03/10 10:00:45;;;;;;;6.32;2.88;;;6.70;99.50;;;;;;5073479;28;20095;-71
2023/03/10 10:03:20;;;;;;;3.35;1.95;;;6.70;99.50;;;;;;5073508;28;20099;-71
2023/03/10 10:05:48;;;;;;;6.45;3.63;;;6.70;99.50;;;;;;5086524;28;20025;-71
2023/03/10 10:08:21;;;;;;;5.53;3.38;;;6.70;99.60;;;;;;5090899;28;20094;-71
2023/03/10 10:10:52;;;;;;;8.15;3.78;;;6.80;99.60;;;;;;5077879;28;20025;-71
2023/03/10 10:13:21;;;;;;;7.10;3.90;;;6.80;99.60;;;;;;5089447;28;20028;-71
2023/03/10 10:16:04;;;;;;;4.15;2.63;;;6.80;99.60;;;;;;5084678;28;20020;-70
2023/03/10 10:18:36;;;;;;;5.82;3.45;;;6.80;99.60;;;;;;5087496;28;20028;-71
2023/03/10 10:21:15;;;;;;;6.00;3.42;;;6.80;99.70;;;;;;5080377;28;20572;-69
2023/03/10 10:23:53;;;;;;;4.60;2.60;;;6.90;99.80;;;;;;5086822;28;20020;-71
2023/03/10 10:26:22;;;;;;;4.45;2.40;;;6.90;99.80;;;;;;5091850;28;20029;-71
2023/03/10 10:28:55;;;;;;;4.20;2.35;;;6.90;99.70;;;;;;5080845;28;20028;-70
2023/03/10 10:31:25;;;;;;;3.85;2.40;;;6.90;99.60;;;;;;5083417;28;20374;-71
2023/03/10 10:34:00;;;;;;;7.47;3.42;;;6.80;99.60;;;;;;5091273;28;20480;-71
2023/03/10 10:36:33;;;;;;;6.30;2.88;;;6.90;99.60;;;;;;5085099;28;20020;-71
2023/03/10 10:39:00;;;;;;;3.70;2.20;;;6.90;99.60;;;;;;5078096;28;20017;-71
2023/03/10 10:41:31;;;;;;;5.22;2.97;;;6.90;99.60;;;;;;5076352;28;20057;-72
2023/03/10 10:44:04;;;;;;;6.80;3.10;;;7.00;99.60;;;;;;5085946;28;20032;-71
2023/03/10 10:46:31;;;;;;;4.55;2.65;;;6.90;99.40;;;;;;5090692;28;20020;-71
2023/03/10 10:49:20;;;;;;;5.40;3.03;;;6.90;99.50;;;;;;5079125;28;20051;-71
2023/03/10 10:51:56;;;;;;;5.40;2.97;;;6.90;99.70;;;;;;5074037;28;20020;-71
2023/03/10 10:54:27;;;;;;;4.15;2.42;;;6.90;99.50;;;;;;5083757;28;20032;-71
2023/03/10 10:56:56;;;;;;;5.18;2.83;;;7.00;99.40;;;;;;5079767;28;20060;-71
2023/03/10 10:59:35;;;;;;;5.65;2.72;;;7.00;99.40;;;;;;5081518;28;20118;-72
2023/03/10 11:02:03;;;;;;;3.60;2.13;;;7.00;99.50;;;;;;5081573;28;20024;-72
2023/03/10 11:04:41;;;;;;;4.95;2.75;;;7.00;99.30;;;;;;5083416;28;20020;-71
2023/03/10 11:07:15;;;;;;;5.20;1.77;;;7.00;99.20;;;;;;5085102;28;20107;-71
2023/03/10 11:09:41;;;;;;;4.03;2.33;;;7.00;99.10;;;;;;5074794;28;20139;-71
2023/03/10 11:12:18;;;;;;;4.50;2.40;;;7.00;98.90;;;;;;5080152;28;20107;-71
2023/03/10 11:14:57;;;;;;;6.53;3.30;;;6.90;99.00;;;;;;5079547;28;20055;-70
2023/03/10 11:17:44;;;;;;;5.78;1.70;;;6.90;98.80;;;;;;5090793;28;20032;-70
2023/03/10 11:20:31;;;;;;;4.75;2.65;;;6.80;99.10;;;;;;5085265;28;20052;-71
2023/03/10 11:23:19;;;;;;;6.43;3.60;;;6.70;99.20;;;;;;5092377;28;20051;-70
2023/03/10 11:26:18;;;;;;;5.25;2.75;;;6.70;99.20;;;;;;5075675;28;20577;-71
2023/03/10 11:28:53;;;;;;;5.30;2.30;;;6.70;99.40;;;;;;5084913;28;20024;-71
2023/03/10 11:31:57;;;;;;;6.68;4.13;;;6.70;99.40;;;;;;5077039;28;20086;-71
2023/03/10 11:34:36;;;;;;;6.20;3.13;;;6.70;99.40;;;;;;5080174;28;20044;-70
2023/03/10 11:37:14;;;;;;;5.20;2.10;;;6.70;99.30;;;;;;5084189;28;20023;-70
2023/03/10 11:40:25;;;;;;;3.92;2.10;;;6.70;99.60;;;;;;5074615;28;20028;-70
2023/03/10 11:43:16;;;;;;;5.78;3.63;;;6.60;99.50;;;;;;5059308;28;20090;-70
2023/03/10 11:45:53;;;;;;;5.25;2.92;;;6.50;99.30;;;;;;5086128;28;20479;-69
2023/03/10 11:48:36;;;;;;;6.40;3.25;;;6.50;99.30;;;;;;5071449;28;20487;-70
2023/03/10 11:51:04;;;;;;;6.90;4.60;;;6.50;99.30;;;;;;5075705;28;20021;-71
2023/03/10 11:53:46;;;;;;;5.10;2.67;;;6.50;99.20;;;;;;5070945;28;20016;-70
2023/03/10 11:56:14;;;;;;;4.72;2.53;;;6.50;99.50;;;;;;5081908;28;20020;-70
2023/03/10 11:58:48;;;;;;;6.13;2.92;;;6.60;99.40;;;;;;5080562;28;20032;-71
2023/03/10 12:01:20;;;;;;;3.83;2.10;;;6.60;99.40;;;;;;5073562;28;20070;-72
2023/03/10 12:04:12;;;;;;;6.63;2.67;;;6.50;99.40;;;;;;5078676;28;20024;-72
2023/03/10 12:06:51;;;;;;;5.18;2.70;;;6.50;99.40;;;;;;5076620;28;20020;-72
2023/03/10 12:09:37;;;;;;;3.78;1.88;;;6.50;99.50;;;;;;5086246;28;20055;-71
2023/03/10 12:12:04;;;;;;;4.32;2.10;;;6.60;99.60;;;;;;5074218;28;20025;-70
2023/03/10 12:14:31;;;;;;;4.20;1.50;;;6.60;99.50;;;;;;5078057;28;20041;-70
2023/03/10 12:16:58;;;;;;;7.38;2.10;;;6.60;99.80;;;;;;5085857;28;20020;-70
2023/03/10 12:19:24;;;;;;;4.43;1.70;;;6.60;99.70;;;;;;5076822;28;20024;-70
2023/03/10 12:22:23;;;;;;;4.32;2.08;;;6.60;99.90;;;;;;5074618;28;20020;-71
2023/03/10 12:24:49;;;;;;;5.20;2.22;;;6.60;99.90;;;;;;5075360;28;20491;-70
2023/03/10 12:27:15;;;;;;;2.58;1.33;;;6.60;99.90;;;;;;5074322;28;20028;-71
2023/03/10 12:29:42;;;;;;;3.85;1.50;;;6.60;99.90;;;;;;5088554;28;20027;-72
2023/03/10 12:32:46;;;;;;;2.45;1.35;;;6.70;99.90;;;;;;5084891;28;20099;-71
2023/03/10 12:35:31;;;;;;;3.83;1.90;;;6.70;99.90;;;;;;5075566;28;20061;-71
2023/03/10 12:38:23;;;;;;;4.43;1.40;;;6.70;99.90;;;;;;5078382;28;20433;-70
2023/03/10 12:40:50;;;;;;;4.15;2.30;;;6.80;99.90;;;;;;5070783;28;20049;-71
2023/03/10 12:43:43;;;;;;;3.15;1.88;;;6.90;99.90;;;;;;5079890;28;20479;-71
2023/03/10 12:46:22;;;;;;;4.45;2.42;;;6.90;99.80;;;;;;5044844;28;20403;-71
2023/03/10 12:49:09;;;;;;;3.78;2.10;;;6.90;99.60;;;;;;5076579;28;20071;-71
2023/03/10 12:51:40;;;;;;;5.30;2.20;;;6.80;99.60;;;;;;5081554;28;20457;-71
2023/03/10 12:54:25;;;;;;;;;;;6.80;99.80;;;;;;5074144;28;20067;-71
2023/03/10 12:57:00;;;;;;;3.75;1.98;;;6.80;99.90;;;;;;5075851;28;19904;-72
2023/03/10 12:59:44;;;;;;;3.40;1.75;;;6.90;99.90;;;;;;5076156;28;20017;-72
2023/03/10 13:02:42;;;;;;;3.58;1.60;;;6.80;99.90;;;;;;5085041;28;20039;-72
2023/03/10 13:05:18;;;;;;;3.28;1.75;;;6.80;99.90;;;;;;5053738;28;20078;-72
2023/03/10 13:07:48;;;;;;;3.03;1.52;;;6.80;99.90;;;;;;5075251;28;20052;-71
2023/03/10 13:10:19;;;;;;;4.20;1.70;;;6.80;99.90;;;;;;5078259;28;20032;-71